Pagrindinis puslapis
METAR-TAF:

METAR-TAF

Oro uostai :

Karalienės Alijos tarptautinis oro uostas

Amanas-Queen Alia, Jordanija

platuma: 31-40N, ilguma: 035-58E, Aukštis: 721 m

Dabartinis oras

Ataskaita buvo paskelbta 1 valandą ir 1 minutes, ne 19:00 UTC
Vėjas 7 kt iš Vakarų/Šiaurės Vakarų
Temperatūra 18°C
Drėgmė 68%
Slėgis 1021 hPa
Matomumas: 6000 m

METAR: OJAI 221900Z 30007KT 6000 NSC 18/12 Q1021 NOSIG

Laikas: 23:01 (20:01 UTC)

Prognozė

Ataskaita buvo paskelbta 3 valandos ir 11 minutes, ne 16:50 UTC
Prognozė galioja nuo 22 metu 18 UTC su 23 metu 24 UTC
Vėjas 8 kt iš Vakarų
Matomumas: 6000 m
Tikimybė 30%
nuo 23 metu 02 UTC su 23 metu 06 UTC
Vėjas 2 kt nuo kintamojo kryptimis
Matomumas: 3000 m
rūkana
Tapsmas
nuo 23 metu 05 UTC su 23 metu 07 UTC
Matomumas: 5000 m
Išsisklaidę debesys ne aukštis 4000 ft
migla

TAF: OJAI 221650Z 2218/2324 28008KT 6000 NSC PROB30 2302/2306 VRB02KT 3000 BR BECMG 2305/2307 5000 HZ SCT040

Orai ataskaitas ir orų prognozės (METAR, TAF).

turimą stotys yra geltonos ir raudonos taškus žemėlapyje.

Perkelti pele per norėdami pamatyti stoties vardą.

Tada spustelėkite, norėdami matyti oro stebėjimo ir prognozės.

Norėdami pakeisti žemėlapį: spustelėkite ant žalios mygtukų su juodo kryžiaus žemyn,; žalią mygtuką su brūkšneliu, jei norite nutolinti; arba žalių rodyklių gretimoms žemėlapius.


METAR-TAF: